createdAt,value
2023-05-22T00:02:08.247Z,100.00
2023-05-22T00:04:37.384Z,100.00
2023-05-22T00:07:06.729Z,100.00
2023-05-22T00:09:34.852Z,100.00
2023-05-22T00:12:02.940Z,100.00
2023-05-22T00:14:31.012Z,100.00
2023-05-22T00:17:00.297Z,100.00
2023-05-22T00:19:30.556Z,100.00
2023-05-22T00:21:59.057Z,100.00
2023-05-22T00:24:26.994Z,100.00
2023-05-22T00:26:55.008Z,100.00
2023-05-22T00:29:23.122Z,100.00
2023-05-22T00:31:51.466Z,100.00
2023-05-22T00:34:19.572Z,100.00
2023-05-22T00:36:47.614Z,100.00
2023-05-22T00:39:16.209Z,100.00
2023-05-22T00:41:44.220Z,100.00
2023-05-22T00:44:12.892Z,100.00
2023-05-22T00:46:40.971Z,100.00
2023-05-22T00:49:08.969Z,100.00
2023-05-22T00:51:37.297Z,100.00
2023-05-22T00:54:06.267Z,100.00
2023-05-22T00:56:34.484Z,100.00
2023-05-22T00:59:02.975Z,100.00
2023-05-22T01:01:33.864Z,100.00
2023-05-22T01:04:05.403Z,100.00
2023-05-22T01:06:33.929Z,100.00
2023-05-22T01:09:02.124Z,100.00
2023-05-22T01:11:50.583Z,100.00
2023-05-22T01:14:34.129Z,100.00
2023-05-22T01:17:09.082Z,100.00
2023-05-22T01:20:15.921Z,100.00
2023-05-22T01:23:15.076Z,100.00
2023-05-22T01:25:55.275Z,100.00
2023-05-22T01:28:28.981Z,100.00
2023-05-22T01:31:12.547Z,100.00
2023-05-22T01:33:51.556Z,100.00
2023-05-22T01:36:24.769Z,100.00
2023-05-22T01:38:54.714Z,100.00
2023-05-22T01:41:23.401Z,100.00
2023-05-22T01:43:52.163Z,100.00
2023-05-22T01:46:20.428Z,100.00
2023-05-22T01:48:49.303Z,100.00
2023-05-22T01:51:34.918Z,100.00
2023-05-22T01:54:18.220Z,100.00
2023-05-22T01:56:57.665Z,100.00
2023-05-22T01:59:37.652Z,100.00
2023-05-22T02:02:09.366Z,100.00
2023-05-22T02:04:42.426Z,100.00
2023-05-22T02:07:13.865Z,100.00
2023-05-22T02:09:44.216Z,100.00
2023-05-22T02:12:14.336Z,100.00
2023-05-22T02:14:44.139Z,100.00
2023-05-22T02:17:12.844Z,100.00
2023-05-22T02:19:40.951Z,100.00
2023-05-22T02:22:11.822Z,100.00
2023-05-22T02:24:46.081Z,100.00
2023-05-22T02:27:16.943Z,100.00
2023-05-22T02:29:45.214Z,100.00
2023-05-22T02:32:13.256Z,100.00
2023-05-22T02:34:42.134Z,100.00
2023-05-22T02:37:10.151Z,100.00
2023-05-22T02:39:38.209Z,100.00
2023-05-22T02:42:07.135Z,100.00
2023-05-22T02:44:35.490Z,100.00
2023-05-22T02:47:03.663Z,100.00
2023-05-22T02:49:31.772Z,100.00
2023-05-22T02:51:59.837Z,100.00
2023-05-22T02:54:28.214Z,100.00
2023-05-22T02:56:57.010Z,100.00
2023-05-22T02:59:27.342Z,100.00
2023-05-22T03:01:55.980Z,100.00
2023-05-22T03:04:24.672Z,100.00
2023-05-22T03:06:53.534Z,100.00
2023-05-22T03:09:21.626Z,100.00
2023-05-22T03:11:49.645Z,100.00
2023-05-22T03:14:18.584Z,100.00
2023-05-22T03:16:46.704Z,100.00
2023-05-22T03:19:16.142Z,100.00
2023-05-22T03:21:44.673Z,100.00
2023-05-22T03:24:14.253Z,100.00
2023-05-22T03:26:43.836Z,100.00
2023-05-22T03:29:16.627Z,100.00
2023-05-22T03:31:44.828Z,100.00
2023-05-22T03:34:15.008Z,100.00
2023-05-22T03:36:45.178Z,100.00
2023-05-22T03:39:14.447Z,100.00
2023-05-22T03:41:49.309Z,100.00
2023-05-22T03:44:18.191Z,100.00
2023-05-22T03:46:46.535Z,100.00
2023-05-22T03:49:14.971Z,100.00
2023-05-22T03:51:43.036Z,100.00
2023-05-22T03:54:11.941Z,100.00
2023-05-22T03:56:40.412Z,100.00
2023-05-22T03:59:08.360Z,100.00
2023-05-22T04:01:39.608Z,100.00
2023-05-22T04:04:09.645Z,100.00
2023-05-22T04:06:43.193Z,100.00
2023-05-22T04:09:15.781Z,100.00
2023-05-22T04:11:44.494Z,100.00
2023-05-22T04:14:12.690Z,100.00
2023-05-22T04:16:41.551Z,100.00
2023-05-22T04:19:09.676Z,100.00
2023-05-22T04:21:38.452Z,100.00
2023-05-22T04:24:10.880Z,100.00
2023-05-22T04:26:42.423Z,100.00
2023-05-22T04:29:16.793Z,100.00
2023-05-22T04:31:44.968Z,100.00
2023-05-22T04:34:16.112Z,100.00
2023-05-22T04:36:45.413Z,100.00
2023-05-22T04:39:15.070Z,100.00
2023-05-22T04:41:43.221Z,100.00
2023-05-22T04:44:11.397Z,100.00
2023-05-22T04:46:39.613Z,100.00
2023-05-22T04:49:08.571Z,100.00
2023-05-22T04:51:36.736Z,100.00
2023-05-22T04:54:05.042Z,100.00
2023-05-22T04:56:37.022Z,100.00
2023-05-22T04:59:09.128Z,100.00
2023-05-22T05:01:39.366Z,100.00
2023-05-22T05:04:07.816Z,100.00
2023-05-22T05:06:36.013Z,100.00
2023-05-22T05:09:05.130Z,100.00
2023-05-22T05:11:33.305Z,100.00
2023-05-22T05:14:02.135Z,100.00
2023-05-22T05:16:30.561Z,100.00
2023-05-22T05:18:58.855Z,100.00
2023-05-22T05:21:28.123Z,100.00
2023-05-22T05:23:59.230Z,100.00
2023-05-22T05:26:28.111Z,100.00
2023-05-22T05:28:57.067Z,100.00
2023-05-22T05:31:33.328Z,100.00
2023-05-22T05:34:21.634Z,100.00
2023-05-22T05:36:58.590Z,100.00
2023-05-22T05:39:31.532Z,100.00
2023-05-22T05:42:01.858Z,100.00
2023-05-22T05:44:30.187Z,100.00
2023-05-22T05:46:58.733Z,100.00
2023-05-22T05:49:27.874Z,100.00
2023-05-22T05:51:56.674Z,100.00
2023-05-22T05:54:28.294Z,100.00
2023-05-22T05:57:00.960Z,100.00
2023-05-22T05:59:32.014Z,100.00
2023-05-22T06:02:20.800Z,100.00
2023-05-22T06:04:49.589Z,100.00
2023-05-22T06:07:18.980Z,100.00
2023-05-22T06:09:49.462Z,100.00
2023-05-22T06:12:37.541Z,100.00
2023-05-22T06:15:07.512Z,100.00
2023-05-22T06:17:37.252Z,100.00
2023-05-22T06:20:08.268Z,100.00
2023-05-22T06:22:37.038Z,100.00
2023-05-22T06:25:06.167Z,100.00
2023-05-22T06:27:35.349Z,100.00
2023-05-22T06:30:04.883Z,100.00
2023-05-22T06:32:37.774Z,100.00
2023-05-22T06:35:10.845Z,100.00
2023-05-22T06:37:42.268Z,100.00
2023-05-22T06:40:11.182Z,100.00
2023-05-22T06:43:04.302Z,100.00
2023-05-22T06:45:44.301Z,100.00
2023-05-22T06:48:36.146Z,100.00
2023-05-22T06:51:25.621Z,100.00
2023-05-22T06:53:59.382Z,100.00
2023-05-22T06:56:30.856Z,100.00
2023-05-22T06:59:06.382Z,100.00
2023-05-22T07:01:59.422Z,100.00
2023-05-22T07:04:47.381Z,100.00
2023-05-22T07:07:21.960Z,100.00
2023-05-22T07:09:51.564Z,100.00
2023-05-22T07:12:21.180Z,100.00
2023-05-22T07:14:49.641Z,100.00
2023-05-22T07:17:20.735Z,99.96
2023-05-22T07:19:49.328Z,99.13
2023-05-22T07:22:19.189Z,99.09
2023-05-22T07:24:47.914Z,98.55
2023-05-22T07:27:19.830Z,93.89
2023-05-22T07:29:49.008Z,92.80
2023-05-22T07:32:19.399Z,92.64
2023-05-22T07:37:33.166Z,88.98
2023-05-22T07:40:01.506Z,77.89
2023-05-22T07:42:30.368Z,68.96
2023-05-22T07:44:59.799Z,70.90
2023-05-22T07:47:28.620Z,65.08
2023-05-22T07:49:58.849Z,66.36
2023-05-22T07:52:27.663Z,64.48
2023-05-22T07:54:56.798Z,71.01
2023-05-22T07:57:27.333Z,69.64
2023-05-22T08:00:00.116Z,65.06
2023-05-22T08:02:28.734Z,64.67
2023-05-22T08:04:57.280Z,68.19
2023-05-22T08:07:26.857Z,64.88
2023-05-22T08:10:00.948Z,63.45
2023-05-22T08:12:35.520Z,66.86
2023-05-22T08:15:08.105Z,67.95
2023-05-22T08:17:40.302Z,67.94
2023-05-22T08:20:11.212Z,65.76
2023-05-22T08:22:48.320Z,62.52
2023-05-22T08:25:22.860Z,64.73
2023-05-22T08:27:59.968Z,64.75
2023-05-22T08:30:29.950Z,60.43
2023-05-22T08:32:58.795Z,63.52
2023-05-22T08:35:27.180Z,59.75
2023-05-22T08:37:57.960Z,58.35
2023-05-22T08:40:36.749Z,56.72
2023-05-22T08:43:06.762Z,55.48
2023-05-22T08:45:35.431Z,56.23
2023-05-22T08:48:09.590Z,56.40
2023-05-22T08:50:42.326Z,55.82
2023-05-22T08:53:13.560Z,56.85
2023-05-22T08:55:43.043Z,55.26
2023-05-22T08:58:11.819Z,54.51
2023-05-22T09:00:41.435Z,54.43
2023-05-22T09:03:18.117Z,54.86
2023-05-22T09:05:47.182Z,53.49
2023-05-22T09:08:21.356Z,53.39
2023-05-22T09:10:58.098Z,54.31
2023-05-22T09:13:32.675Z,53.37
2023-05-22T09:16:15.196Z,54.40
2023-05-22T09:18:44.813Z,54.16
2023-05-22T09:21:28.977Z,52.43
2023-05-22T09:24:15.522Z,52.43
2023-05-22T09:26:44.105Z,53.50
2023-05-22T09:29:20.326Z,52.80
2023-05-22T09:31:48.913Z,53.30
2023-05-22T09:34:17.842Z,52.30
2023-05-22T09:36:46.469Z,51.91
2023-05-22T09:39:15.077Z,51.50
2023-05-22T09:41:44.517Z,50.82
2023-05-22T09:44:16.316Z,50.31
2023-05-22T09:46:51.416Z,50.56
2023-05-22T09:49:49.368Z,50.85
2023-05-22T09:52:22.222Z,53.12
2023-05-22T09:54:58.762Z,50.33
2023-05-22T09:57:29.906Z,49.91
2023-05-22T10:00:02.226Z,48.76
2023-05-22T10:03:07.409Z,47.75
2023-05-22T10:05:49.807Z,48.38
2023-05-22T10:08:23.493Z,46.58
2023-05-22T10:10:53.279Z,44.86
2023-05-22T10:13:22.371Z,44.42
2023-05-22T10:15:51.957Z,47.17
2023-05-22T10:18:20.898Z,47.01
2023-05-22T10:20:52.313Z,43.54
2023-05-22T10:23:22.732Z,42.65
2023-05-22T10:25:52.154Z,42.45
2023-05-22T10:28:37.086Z,43.72
2023-05-22T10:31:30.530Z,41.60
2023-05-22T10:34:21.725Z,41.68
2023-05-22T10:37:33.080Z,40.62
2023-05-22T10:40:09.099Z,40.82
2023-05-22T10:42:39.216Z,40.34
2023-05-22T10:45:13.024Z,40.39
2023-05-22T10:47:44.324Z,40.50
2023-05-22T10:50:13.384Z,41.17
2023-05-22T10:52:42.909Z,40.19
2023-05-22T10:55:12.426Z,38.48
2023-05-22T10:57:42.678Z,38.78
2023-05-22T11:00:22.512Z,36.84
2023-05-22T11:03:17.057Z,34.81
2023-05-22T11:05:56.115Z,35.70
2023-05-22T11:08:28.742Z,36.12
2023-05-22T11:11:02.285Z,35.23
2023-05-22T11:13:31.900Z,34.63
2023-05-22T11:16:05.398Z,34.95
2023-05-22T11:18:37.366Z,34.68
2023-05-22T11:21:10.718Z,34.52
2023-05-22T11:23:40.421Z,34.67
2023-05-22T11:26:31.573Z,34.85
2023-05-22T11:29:02.407Z,34.78
2023-05-22T11:31:31.145Z,34.79
2023-05-22T11:33:59.899Z,34.35
2023-05-22T11:36:29.291Z,36.03
2023-05-22T11:39:02.049Z,36.01
2023-05-22T11:41:34.252Z,35.55
2023-05-22T11:44:03.473Z,34.83
2023-05-22T11:46:33.677Z,34.37
2023-05-22T11:49:03.765Z,33.94
2023-05-22T11:51:34.950Z,33.43
2023-05-22T11:54:08.099Z,34.07
2023-05-22T11:56:37.127Z,33.91
2023-05-22T11:59:07.052Z,33.59
2023-05-22T12:01:36.514Z,32.98
2023-05-22T12:04:06.854Z,32.77
2023-05-22T12:06:35.828Z,32.66
2023-05-22T12:09:07.423Z,32.45
2023-05-22T12:11:38.417Z,32.66
2023-05-22T12:14:07.104Z,31.48
2023-05-22T12:16:37.301Z,31.44
2023-05-22T12:19:07.653Z,31.63
2023-05-22T12:21:43.901Z,31.93
2023-05-22T12:24:15.463Z,31.55
2023-05-22T12:26:54.064Z,32.34
2023-05-22T12:29:23.665Z,31.91
2023-05-22T12:31:53.429Z,31.17
2023-05-22T12:34:24.188Z,31.35
2023-05-22T12:36:57.274Z,31.11
2023-05-22T12:39:26.495Z,30.52
2023-05-22T12:41:55.008Z,29.86
2023-05-22T12:44:24.222Z,30.08
2023-05-22T12:46:55.404Z,30.90
2023-05-22T12:49:24.435Z,30.54
2023-05-22T12:51:58.539Z,29.98
2023-05-22T12:54:32.594Z,29.63
2023-05-22T12:57:01.783Z,30.44
2023-05-22T12:59:32.019Z,30.91
2023-05-22T13:02:03.368Z,31.08
2023-05-22T13:04:32.040Z,31.19
2023-05-22T13:07:00.181Z,31.77
2023-05-22T13:09:28.583Z,31.44
2023-05-22T13:11:58.277Z,30.61
2023-05-22T13:14:27.538Z,31.28
2023-05-22T13:16:57.534Z,32.51
2023-05-22T13:19:29.927Z,32.03
2023-05-22T13:21:58.844Z,30.91
2023-05-22T13:24:27.027Z,30.25
2023-05-22T13:26:55.477Z,30.01
2023-05-22T13:29:23.999Z,29.83
2023-05-22T13:31:52.282Z,29.27
2023-05-22T13:34:20.559Z,28.21
2023-05-22T13:36:49.387Z,28.21
2023-05-22T13:39:17.619Z,28.72
2023-05-22T13:41:46.521Z,28.38
2023-05-22T13:44:14.817Z,27.74
2023-05-22T13:46:43.243Z,27.41
2023-05-22T13:49:11.552Z,27.77
2023-05-22T13:51:40.003Z,26.48
2023-05-22T13:54:11.836Z,26.75
2023-05-22T13:56:40.260Z,26.78
2023-05-22T13:59:10.508Z,27.14
2023-05-22T14:01:38.836Z,27.50
2023-05-22T14:04:09.591Z,27.98
2023-05-22T14:06:52.001Z,27.52
2023-05-22T14:09:20.413Z,27.14
2023-05-22T14:11:48.983Z,26.70
2023-05-22T14:14:25.053Z,26.32
2023-05-22T14:16:54.780Z,26.42
2023-05-22T14:19:24.671Z,26.74
2023-05-22T14:21:54.453Z,26.50
2023-05-22T14:24:22.875Z,26.10
2023-05-22T14:26:51.328Z,25.99
2023-05-22T14:29:19.823Z,26.68
2023-05-22T14:31:51.832Z,26.57
2023-05-22T14:34:20.841Z,27.12
2023-05-22T14:36:51.458Z,27.83
2023-05-22T14:39:19.741Z,27.59
2023-05-22T14:41:48.024Z,27.13
2023-05-22T14:44:17.665Z,26.99
2023-05-22T14:46:46.234Z,26.87
2023-05-22T14:49:14.817Z,26.46
2023-05-22T14:51:47.741Z,26.07
2023-05-22T14:54:19.779Z,27.68
2023-05-22T14:56:49.313Z,29.45
2023-05-22T14:59:18.611Z,29.86
2023-05-22T15:01:50.426Z,31.05
2023-05-22T15:04:19.391Z,31.54
2023-05-22T15:06:48.030Z,31.54
2023-05-22T15:09:16.506Z,30.77
2023-05-22T15:11:47.103Z,30.37
2023-05-22T15:14:16.462Z,31.06
2023-05-22T15:16:46.964Z,31.11
2023-05-22T15:19:15.577Z,31.29
2023-05-22T15:21:44.904Z,31.09
2023-05-22T15:24:13.957Z,30.72
2023-05-22T15:26:42.593Z,30.49
2023-05-22T15:29:11.069Z,30.22
2023-05-22T15:31:39.632Z,29.81
2023-05-22T15:34:08.032Z,29.52
2023-05-22T15:36:40.547Z,28.85
2023-05-22T15:39:08.739Z,28.84
2023-05-22T15:41:36.989Z,28.30
2023-05-22T15:44:05.240Z,27.81
2023-05-22T15:46:33.992Z,27.14
2023-05-22T15:49:02.652Z,26.85
2023-05-22T15:51:33.842Z,26.31
2023-05-22T15:54:02.021Z,25.87
2023-05-22T15:56:30.648Z,25.68
2023-05-22T15:58:58.882Z,26.42
2023-05-22T16:01:31.008Z,26.59
2023-05-22T16:03:59.415Z,27.00
2023-05-22T16:06:28.908Z,26.99
2023-05-22T16:08:57.330Z,26.73
2023-05-22T16:11:25.996Z,27.69
2023-05-22T16:13:54.438Z,29.33
2023-05-22T16:16:22.577Z,30.57
2023-05-22T16:18:50.995Z,31.24
2023-05-22T16:21:19.216Z,31.82
2023-05-22T16:23:47.548Z,31.96
2023-05-22T16:26:15.751Z,32.68
2023-05-22T16:28:43.924Z,33.26
2023-05-22T16:31:13.050Z,32.69
2023-05-22T16:33:42.696Z,33.09
2023-05-22T16:36:10.901Z,33.42
2023-05-22T16:38:39.291Z,33.39
2023-05-22T16:41:07.461Z,33.74
2023-05-22T16:43:36.760Z,33.79
2023-05-22T16:46:05.318Z,34.00
2023-05-22T16:48:33.469Z,34.73
2023-05-22T16:51:02.488Z,36.01
2023-05-22T16:53:31.177Z,36.41
2023-05-22T16:55:59.908Z,37.25
2023-05-22T16:58:28.171Z,36.61
2023-05-22T17:00:58.249Z,36.09
2023-05-22T17:03:27.664Z,35.91
2023-05-22T17:05:56.483Z,35.75
2023-05-22T17:08:28.287Z,35.08
2023-05-22T17:10:56.809Z,34.97
2023-05-22T17:13:26.257Z,35.97
2023-05-22T17:15:54.672Z,36.79
2023-05-22T17:18:22.861Z,36.67
2023-05-22T17:20:56.081Z,37.12
2023-05-22T17:23:24.110Z,38.53
2023-05-22T17:25:52.224Z,39.09
2023-05-22T17:28:21.089Z,40.99
2023-05-22T17:30:51.722Z,42.94
2023-05-22T17:33:19.938Z,45.49
2023-05-22T17:35:48.310Z,48.72
2023-05-22T17:38:18.418Z,48.32
2023-05-22T17:40:46.593Z,53.02
2023-05-22T17:43:14.797Z,61.80
2023-05-22T17:45:49.529Z,74.06
2023-05-22T17:48:23.616Z,83.36
2023-05-22T17:50:52.539Z,77.11
2023-05-22T17:53:21.078Z,84.25
2023-05-22T17:55:52.374Z,88.87
2023-05-22T17:58:21.338Z,86.43
2023-05-22T18:00:49.924Z,90.48
2023-05-22T18:03:20.579Z,96.52
2023-05-22T18:05:50.215Z,96.50
2023-05-22T18:08:19.260Z,99.38
2023-05-22T18:10:48.654Z,99.42
2023-05-22T18:13:19.229Z,99.01
2023-05-22T18:15:49.736Z,96.47
2023-05-22T18:18:18.078Z,96.08
2023-05-22T18:20:46.288Z,99.69
2023-05-22T18:23:14.588Z,99.47
2023-05-22T18:25:42.752Z,99.36
2023-05-22T18:28:10.870Z,100.00
2023-05-22T18:30:38.951Z,100.00
2023-05-22T18:33:08.253Z,100.00
2023-05-22T18:35:37.559Z,100.00
2023-05-22T18:38:06.465Z,100.00
2023-05-22T18:40:34.529Z,100.00
2023-05-22T18:43:06.244Z,100.00
2023-05-22T18:45:34.389Z,100.00
2023-05-22T18:48:02.671Z,100.00
2023-05-22T18:50:31.232Z,100.00
2023-05-22T18:52:59.294Z,100.00
2023-05-22T18:55:27.433Z,100.00
2023-05-22T18:57:55.887Z,100.00
2023-05-22T19:00:23.912Z,100.00
2023-05-22T19:02:53.309Z,100.00
2023-05-22T19:05:22.870Z,100.00
2023-05-22T19:07:50.969Z,100.00
2023-05-22T19:10:19.368Z,100.00
2023-05-22T19:12:47.936Z,100.00
2023-05-22T19:15:15.996Z,100.00
2023-05-22T19:17:44.137Z,100.00
2023-05-22T19:20:14.309Z,100.00
2023-05-22T19:22:43.705Z,100.00
2023-05-22T19:25:13.160Z,100.00
2023-05-22T19:27:41.476Z,100.00
2023-05-22T19:30:09.975Z,100.00
2023-05-22T19:32:37.996Z,100.00
2023-05-22T19:35:09.875Z,100.00
2023-05-22T19:37:38.755Z,100.00
2023-05-22T19:40:07.628Z,100.00
2023-05-22T19:42:39.130Z,100.00
2023-05-22T19:45:08.265Z,100.00
2023-05-22T19:47:36.479Z,100.00
2023-05-22T19:50:05.223Z,100.00
2023-05-22T19:52:33.393Z,100.00
2023-05-22T19:55:01.771Z,100.00
2023-05-22T19:57:30.777Z,100.00
2023-05-22T19:59:58.938Z,100.00
2023-05-22T20:02:27.018Z,100.00
2023-05-22T20:04:55.240Z,100.00
2023-05-22T20:07:23.356Z,100.00
2023-05-22T20:09:52.006Z,100.00
2023-05-22T20:12:20.467Z,100.00
2023-05-22T20:14:48.657Z,100.00
2023-05-22T20:17:21.882Z,100.00
2023-05-22T20:19:50.045Z,100.00
2023-05-22T20:22:18.071Z,100.00
2023-05-22T20:24:47.332Z,100.00
2023-05-22T20:27:15.478Z,100.00
2023-05-22T20:29:43.647Z,100.00
2023-05-22T20:32:12.326Z,100.00
2023-05-22T20:34:40.859Z,100.00
2023-05-22T20:37:10.272Z,100.00
2023-05-22T20:39:38.276Z,100.00
2023-05-22T20:42:06.576Z,100.00
2023-05-22T20:44:35.317Z,100.00
2023-05-22T20:47:05.443Z,100.00
2023-05-22T20:49:34.928Z,100.00
2023-05-22T20:52:04.781Z,100.00
2023-05-22T20:54:34.711Z,100.00
2023-05-22T20:57:03.290Z,100.00
2023-05-22T20:59:32.290Z,100.00
2023-05-22T21:02:01.242Z,100.00
2023-05-22T21:04:29.990Z,100.00
2023-05-22T21:06:58.190Z,100.00
2023-05-22T21:09:26.087Z,100.00
2023-05-22T21:11:54.087Z,100.00
2023-05-22T21:14:22.034Z,100.00
2023-05-22T21:16:50.252Z,100.00
2023-05-22T21:19:18.304Z,100.00
2023-05-22T21:21:46.417Z,100.00
2023-05-22T21:24:14.642Z,100.00
2023-05-22T21:26:42.641Z,100.00
2023-05-22T21:29:11.039Z,100.00
2023-05-22T21:31:39.281Z,100.00
2023-05-22T21:34:07.717Z,100.00
2023-05-22T21:36:38.524Z,100.00
2023-05-22T21:39:06.764Z,100.00
2023-05-22T21:41:35.201Z,100.00
2023-05-22T21:44:03.302Z,100.00
2023-05-22T21:46:31.680Z,100.00
2023-05-22T21:49:03.022Z,100.00
2023-05-22T21:51:32.481Z,100.00
2023-05-22T21:54:00.864Z,100.00
2023-05-22T21:56:29.178Z,100.00
2023-05-22T21:58:57.454Z,100.00
2023-05-22T22:01:25.649Z,100.00
2023-05-22T22:03:53.955Z,100.00
2023-05-22T22:06:22.053Z,100.00
2023-05-22T22:08:50.164Z,100.00
2023-05-22T22:11:18.176Z,100.00
2023-05-22T22:13:46.211Z,100.00
2023-05-22T22:16:14.854Z,100.00
2023-05-22T22:18:43.900Z,100.00
2023-05-22T22:21:14.486Z,100.00
2023-05-22T22:23:42.510Z,100.00
2023-05-22T22:26:14.718Z,100.00
2023-05-22T22:28:43.074Z,100.00
2023-05-22T22:31:11.374Z,100.00
2023-05-22T22:33:39.392Z,100.00
2023-05-22T22:36:07.570Z,100.00
2023-05-22T22:38:35.612Z,100.00
2023-05-22T22:41:04.855Z,100.00
2023-05-22T22:43:32.919Z,100.00
2023-05-22T22:46:01.354Z,100.00
2023-05-22T22:48:29.438Z,100.00
2023-05-22T22:50:58.211Z,100.00
2023-05-22T22:53:26.373Z,100.00
2023-05-22T22:55:56.823Z,100.00
2023-05-22T22:58:25.588Z,100.00
2023-05-22T23:00:53.674Z,100.00
2023-05-22T23:03:21.823Z,100.00
2023-05-22T23:05:50.493Z,100.00
2023-05-22T23:08:19.305Z,100.00
2023-05-22T23:10:47.341Z,100.00
2023-05-22T23:13:16.173Z,100.00
2023-05-22T23:15:44.389Z,100.00
2023-05-22T23:18:13.977Z,100.00
2023-05-22T23:20:42.130Z,100.00
2023-05-22T23:23:10.456Z,100.00
2023-05-22T23:25:38.559Z,100.00
2023-05-22T23:28:07.343Z,100.00
2023-05-22T23:30:35.324Z,100.00
2023-05-22T23:33:06.133Z,100.00
2023-05-22T23:35:34.483Z,100.00
2023-05-22T23:38:02.452Z,100.00
2023-05-22T23:40:30.474Z,100.00
2023-05-22T23:42:58.615Z,100.00
2023-05-22T23:45:26.645Z,100.00
2023-05-22T23:47:54.713Z,100.00
2023-05-22T23:50:22.691Z,100.00
2023-05-22T23:52:50.753Z,100.00
2023-05-22T23:55:19.048Z,100.00
2023-05-22T23:57:47.025Z,100.00
